Weather at Ronald Reagan Washington National Airport

Public forecast

Using degrees Fahrenheit for public forecast. Weather courtesy of forecast.io.

Current aviation weather report (METAR) for Ronald Reagan Washington National Airport

Retrieved 2022/05/23 06:52 UTC (49 minutes ago):

KDCA 230652Z 32012KT 10SM BKN230 20/15 A3013 RMK AO2 SLP202 T02000150

Aviation forecast (TAF) for Ronald Reagan Washington National Airport

Retrieved 2022/05/23 06:45 UTC (56 minutes ago):

TAF KDCA 230542Z 2306/2412 33010G18KT P6SM SCT130 BKN200 FM231500 36008KT P6SM SCT070 BKN100 FM232200 01004KT P6SM OVC045 FM240300 02004KT P6SM -SHRA OVC040 FM240700 03003KT 6SM -SHRA BR OVC015 FM241100 06004KT P6SM OVC010